createdAt,value
2016-09-19T00:00:35.484Z,0
2016-09-19T00:01:36.123Z,0
2016-09-19T00:02:36.785Z,0
2016-09-19T00:03:37.416Z,0
2016-09-19T00:04:38.055Z,0
2016-09-19T00:05:38.718Z,0
2016-09-19T00:06:39.371Z,0
2016-09-19T00:07:40.024Z,0
2016-09-19T00:08:40.689Z,0
2016-09-19T00:09:41.337Z,0
2016-09-19T00:10:41.998Z,0
2016-09-19T00:11:42.637Z,0
2016-09-19T00:12:43.292Z,0
2016-09-19T00:13:43.987Z,0
2016-09-19T00:14:44.693Z,0
2016-09-19T00:15:45.343Z,0
2016-09-19T00:16:46.036Z,0
2016-09-19T00:17:46.661Z,0
2016-09-19T00:18:47.311Z,0
2016-09-19T00:19:47.974Z,0
2016-09-19T00:20:48.622Z,0
2016-09-19T00:21:49.296Z,0
2016-09-19T00:22:49.948Z,0
2016-09-19T00:23:50.590Z,0
2016-09-19T00:24:51.239Z,0
2016-09-19T00:25:51.876Z,0
2016-09-19T00:26:52.541Z,0
2016-09-19T00:27:53.206Z,0
2016-09-19T00:28:53.861Z,0
2016-09-19T00:29:54.501Z,0
2016-09-19T00:30:55.157Z,0
2016-09-19T00:31:55.815Z,0
2016-09-19T00:32:56.449Z,0
2016-09-19T00:33:57.090Z,0
2016-09-19T00:34:57.757Z,0
2016-09-19T00:35:58.397Z,0
2016-09-19T00:36:59.028Z,0
2016-09-19T00:37:59.661Z,0
2016-09-19T00:39:00.323Z,0
2016-09-19T00:40:00.965Z,0
2016-09-19T00:41:01.612Z,0
2016-09-19T00:42:02.268Z,0
2016-09-19T00:43:02.903Z,0
2016-09-19T00:44:03.561Z,0
2016-09-19T00:45:04.195Z,0
2016-09-19T00:46:04.868Z,0
2016-09-19T00:47:05.524Z,0
2016-09-19T00:48:06.161Z,0
2016-09-19T00:49:06.815Z,0
2016-09-19T00:50:07.468Z,0
2016-09-19T00:51:08.116Z,0
2016-09-19T00:52:08.767Z,0
2016-09-19T00:53:09.402Z,0
2016-09-19T00:54:10.053Z,0
2016-09-19T00:55:10.709Z,0
2016-09-19T00:56:11.354Z,0
2016-09-19T00:57:12.011Z,0
2016-09-19T00:58:12.647Z,0
2016-09-19T00:59:13.337Z,0
2016-09-19T01:00:13.992Z,0
2016-09-19T01:01:14.636Z,0
2016-09-19T01:02:15.311Z,0
2016-09-19T01:03:15.945Z,0
2016-09-19T01:04:16.591Z,0
2016-09-19T01:05:17.247Z,0
2016-09-19T01:06:17.899Z,0
2016-09-19T01:07:18.532Z,0
2016-09-19T01:08:19.172Z,0
2016-09-19T01:09:19.813Z,0
2016-09-19T01:10:20.452Z,0
2016-09-19T01:11:21.103Z,0
2016-09-19T01:12:21.740Z,0
2016-09-19T01:13:22.382Z,0
2016-09-19T01:14:23.061Z,0
2016-09-19T01:15:23.701Z,0
2016-09-19T01:16:24.332Z,0
2016-09-19T01:17:25.008Z,0
2016-09-19T01:18:25.662Z,0
2016-09-19T01:19:26.309Z,0
2016-09-19T01:20:26.994Z,0
2016-09-19T01:21:27.622Z,0
2016-09-19T01:22:28.258Z,0
2016-09-19T01:23:28.911Z,0
2016-09-19T01:24:29.544Z,0
2016-09-19T01:25:30.186Z,0
2016-09-19T01:26:30.841Z,0
2016-09-19T01:27:31.478Z,0
2016-09-19T01:28:32.110Z,0
2016-09-19T01:29:32.759Z,0
2016-09-19T01:30:33.404Z,0
2016-09-19T01:31:34.066Z,0
2016-09-19T01:32:34.713Z,0
2016-09-19T01:33:35.359Z,0
2016-09-19T01:34:36.009Z,0
2016-09-19T01:35:36.636Z,0
2016-09-19T01:36:37.277Z,0
2016-09-19T01:37:37.921Z,0
2016-09-19T01:38:38.580Z,0
2016-09-19T01:39:39.218Z,0
2016-09-19T01:40:39.876Z,0
2016-09-19T01:41:40.514Z,0
2016-09-19T01:42:41.148Z,0
2016-09-19T01:43:41.779Z,0
2016-09-19T01:44:42.532Z,0
2016-09-19T01:45:43.179Z,0
2016-09-19T01:46:43.830Z,0
2016-09-19T01:47:44.472Z,0
2016-09-19T01:48:45.114Z,0
2016-09-19T01:49:45.764Z,0
2016-09-19T01:50:46.419Z,0
2016-09-19T01:51:47.056Z,0
2016-09-19T01:52:47.686Z,0
2016-09-19T01:53:48.324Z,0
2016-09-19T01:54:48.975Z,0
2016-09-19T01:55:49.618Z,0
2016-09-19T01:56:50.249Z,0
2016-09-19T01:57:50.898Z,0
2016-09-19T01:58:51.539Z,0
2016-09-19T01:59:52.168Z,0
2016-09-19T02:00:52.811Z,0
2016-09-19T02:01:53.446Z,0
2016-09-19T02:02:54.111Z,0
2016-09-19T02:03:54.778Z,0
2016-09-19T02:04:55.409Z,0
2016-09-19T02:05:56.064Z,0
2016-09-19T02:06:56.731Z,0
2016-09-19T02:07:57.375Z,0
2016-09-19T02:08:58.024Z,0
2016-09-19T02:09:58.661Z,0
2016-09-19T02:10:59.313Z,0
2016-09-19T02:11:59.971Z,0
2016-09-19T02:13:00.603Z,0
2016-09-19T02:14:01.258Z,0
2016-09-19T02:15:01.911Z,0
2016-09-19T02:16:02.552Z,0
2016-09-19T02:17:03.190Z,0
2016-09-19T02:18:03.847Z,0
2016-09-19T02:19:04.485Z,0
2016-09-19T02:20:05.145Z,0
2016-09-19T02:21:05.800Z,0
2016-09-19T02:22:06.449Z,0
2016-09-19T02:23:07.108Z,0
2016-09-19T02:24:07.767Z,0
2016-09-19T02:25:08.424Z,0
2016-09-19T02:26:09.066Z,0
2016-09-19T02:27:09.733Z,0
2016-09-19T02:28:10.366Z,0
2016-09-19T02:29:10.999Z,0
2016-09-19T02:30:11.644Z,0
2016-09-19T02:31:12.294Z,0
2016-09-19T02:32:12.924Z,0
2016-09-19T02:33:13.626Z,0
2016-09-19T02:34:14.252Z,0
2016-09-19T02:35:14.896Z,0
2016-09-19T02:36:15.533Z,0
2016-09-19T02:37:16.202Z,0
2016-09-19T02:38:16.841Z,0
2016-09-19T02:39:17.476Z,0
2016-09-19T02:40:18.124Z,0
2016-09-19T02:41:18.760Z,0
2016-09-19T02:42:19.415Z,0
2016-09-19T02:43:20.076Z,0
2016-09-19T02:44:20.727Z,0
2016-09-19T02:45:21.371Z,0
2016-09-19T02:46:22.012Z,0
2016-09-19T02:47:22.648Z,0
2016-09-19T02:48:23.288Z,0
2016-09-19T02:49:23.927Z,0
2016-09-19T02:50:24.579Z,0
2016-09-19T02:51:25.217Z,0
2016-09-19T02:52:25.865Z,0
2016-09-19T02:53:26.522Z,0
2016-09-19T02:54:27.150Z,0
2016-09-19T02:55:27.783Z,0
2016-09-19T02:56:28.429Z,0
2016-09-19T02:57:29.065Z,0
2016-09-19T02:58:29.722Z,0
2016-09-19T02:59:30.378Z,0
2016-09-19T03:00:31.017Z,0
2016-09-19T03:01:31.656Z,0
2016-09-19T03:02:32.288Z,0
2016-09-19T03:03:32.929Z,0
2016-09-19T03:04:33.578Z,0
2016-09-19T03:05:34.204Z,0
2016-09-19T03:06:34.843Z,0
2016-09-19T03:07:35.488Z,0
2016-09-19T03:08:36.132Z,0
2016-09-19T03:09:36.781Z,0
2016-09-19T03:10:37.417Z,0
2016-09-19T03:11:38.070Z,0
2016-09-19T03:12:38.723Z,0
2016-09-19T03:13:39.371Z,0
2016-09-19T03:14:39.997Z,0
2016-09-19T03:15:40.666Z,0
2016-09-19T03:16:41.315Z,0
2016-09-19T03:17:41.972Z,0
2016-09-19T03:18:42.637Z,0
2016-09-19T03:19:43.281Z,0
2016-09-19T03:20:43.946Z,0
2016-09-19T03:21:44.605Z,0
2016-09-19T03:22:45.247Z,0
2016-09-19T03:23:45.911Z,0
2016-09-19T03:24:46.567Z,0
2016-09-19T03:25:47.214Z,0
2016-09-19T03:26:47.855Z,0
2016-09-19T03:27:48.491Z,0
2016-09-19T03:28:49.142Z,0
2016-09-19T03:29:49.772Z,0
2016-09-19T03:30:50.406Z,0
2016-09-19T03:31:51.044Z,0
2016-09-19T03:32:51.707Z,0
2016-09-19T03:33:52.382Z,0
2016-09-19T03:34:53.020Z,0
2016-09-19T03:35:53.668Z,0
2016-09-19T03:36:54.347Z,0
2016-09-19T03:37:54.976Z,0
2016-09-19T03:38:55.631Z,0
2016-09-19T03:39:56.278Z,0
2016-09-19T03:40:56.908Z,0
2016-09-19T03:41:57.543Z,0
2016-09-19T03:42:58.191Z,0
2016-09-19T03:43:58.835Z,0
2016-09-19T03:44:59.462Z,0
2016-09-19T03:46:00.100Z,0
2016-09-19T03:47:00.734Z,0
2016-09-19T03:48:01.386Z,0
2016-09-19T03:49:02.039Z,0
2016-09-19T03:50:02.682Z,0
2016-09-19T03:51:03.326Z,0
2016-09-19T03:52:03.962Z,0
2016-09-19T03:53:04.617Z,0
2016-09-19T03:54:05.251Z,0
2016-09-19T03:55:05.885Z,0
2016-09-19T03:56:06.537Z,0
2016-09-19T03:57:07.171Z,0
2016-09-19T03:58:07.822Z,0
2016-09-19T03:59:08.459Z,0
2016-09-19T04:00:09.089Z,0
2016-09-19T04:01:09.733Z,0
2016-09-19T04:02:10.361Z,0
2016-09-19T04:03:11.014Z,0
2016-09-19T04:04:11.649Z,0
2016-09-19T04:05:12.305Z,0
2016-09-19T04:06:12.979Z,0
2016-09-19T04:07:13.617Z,0
2016-09-19T04:08:14.274Z,0
2016-09-19T04:09:14.921Z,0
2016-09-19T04:10:15.545Z,0
2016-09-19T04:11:16.187Z,0
2016-09-19T04:12:16.818Z,0
2016-09-19T04:13:17.474Z,0
2016-09-19T04:14:18.120Z,0
2016-09-19T04:15:18.749Z,0
2016-09-19T04:16:19.406Z,0
2016-09-19T04:17:20.041Z,0
2016-09-19T04:18:20.691Z,0
2016-09-19T04:19:21.335Z,0
2016-09-19T04:20:21.975Z,0
2016-09-19T04:21:22.618Z,0
2016-09-19T04:22:23.266Z,0
2016-09-19T04:23:23.898Z,0
2016-09-19T04:24:24.540Z,0
2016-09-19T04:25:25.189Z,0
2016-09-19T04:26:25.826Z,0
2016-09-19T04:27:26.482Z,0
2016-09-19T04:28:27.115Z,0
2016-09-19T04:29:27.748Z,0
2016-09-19T04:30:28.378Z,0
2016-09-19T04:31:29.030Z,4
2016-09-19T04:32:29.662Z,4
2016-09-19T04:33:30.298Z,0
2016-09-19T04:34:30.942Z,4
2016-09-19T04:35:31.588Z,4
2016-09-19T04:36:32.238Z,4
2016-09-19T04:37:32.885Z,8
2016-09-19T04:38:33.530Z,8
2016-09-19T04:39:34.186Z,8
2016-09-19T04:40:34.853Z,12
2016-09-19T04:41:35.493Z,16
2016-09-19T04:42:36.151Z,16
2016-09-19T04:43:36.793Z,20
2016-09-19T04:44:37.435Z,24
2016-09-19T04:45:38.084Z,24
2016-09-19T04:46:38.722Z,32
2016-09-19T04:47:39.372Z,36
2016-09-19T04:48:40.019Z,40
2016-09-19T04:49:40.648Z,48
2016-09-19T04:50:41.285Z,52
2016-09-19T04:51:41.937Z,64
2016-09-19T04:52:42.619Z,68
2016-09-19T04:53:43.271Z,76
2016-09-19T04:54:43.909Z,88
2016-09-19T04:55:44.580Z,96
2016-09-19T04:56:45.220Z,108
2016-09-19T04:57:45.865Z,124
2016-09-19T04:58:46.522Z,140
2016-09-19T04:59:47.154Z,156
2016-09-19T05:00:47.814Z,172
2016-09-19T05:01:48.466Z,188
2016-09-19T05:02:49.122Z,208
2016-09-19T05:03:49.756Z,224
2016-09-19T05:04:50.403Z,240
2016-09-19T05:05:51.060Z,260
2016-09-19T05:06:51.698Z,280
2016-09-19T05:07:52.358Z,300
2016-09-19T05:08:52.998Z,320
2016-09-19T05:09:53.643Z,344
2016-09-19T05:10:54.277Z,368
2016-09-19T05:11:54.923Z,396
2016-09-19T05:12:55.565Z,424
2016-09-19T05:13:56.211Z,452
2016-09-19T05:14:56.863Z,476
2016-09-19T05:15:57.508Z,504
2016-09-19T05:16:58.148Z,488
2016-09-19T05:17:58.790Z,560
2016-09-19T05:18:59.418Z,584
2016-09-19T05:20:00.059Z,624
2016-09-19T05:21:00.708Z,656
2016-09-19T05:22:01.354Z,700
2016-09-19T05:23:01.999Z,736
2016-09-19T05:24:02.640Z,780
2016-09-19T05:25:03.270Z,816
2016-09-19T05:26:03.945Z,848
2016-09-19T05:27:04.586Z,876
2016-09-19T05:28:05.226Z,904
2016-09-19T05:29:05.875Z,924
2016-09-19T05:30:06.541Z,944
2016-09-19T05:31:07.204Z,968
2016-09-19T05:32:07.870Z,992
2016-09-19T05:33:08.519Z,1020
2016-09-19T05:34:09.157Z,1052
2016-09-19T05:35:09.803Z,1088
2016-09-19T05:36:10.445Z,1124
2016-09-19T05:37:11.090Z,1152
2016-09-19T05:38:11.731Z,1176
2016-09-19T05:39:12.379Z,1212
2016-09-19T05:40:13.043Z,1256
2016-09-19T05:41:13.685Z,1304
2016-09-19T05:42:14.323Z,1352
2016-09-19T05:43:14.977Z,1396
2016-09-19T05:44:15.636Z,1440
2016-09-19T05:45:16.286Z,1484
2016-09-19T05:46:16.941Z,1532
2016-09-19T05:47:17.586Z,1584
2016-09-19T05:48:18.235Z,1640
2016-09-19T05:49:18.878Z,1704
2016-09-19T05:50:19.508Z,1780
2016-09-19T05:51:20.155Z,1852
2016-09-19T05:52:20.794Z,1908
2016-09-19T05:53:21.440Z,1960
2016-09-19T05:54:22.081Z,2020
2016-09-19T05:55:22.739Z,2056
2016-09-19T05:56:23.376Z,2100
2016-09-19T05:57:24.029Z,2136
2016-09-19T05:58:24.694Z,2160
2016-09-19T05:59:25.348Z,2228
2016-09-19T06:00:25.991Z,2232
2016-09-19T06:01:26.658Z,2244
2016-09-19T06:02:27.313Z,2296
2016-09-19T06:03:27.952Z,2340
2016-09-19T06:04:28.593Z,2400
2016-09-19T06:05:29.244Z,2456
2016-09-19T06:06:29.898Z,2556
2016-09-19T06:07:30.545Z,2588
2016-09-19T06:08:31.193Z,2672
2016-09-19T06:09:31.842Z,2816
2016-09-19T06:10:32.500Z,2896
2016-09-19T06:11:33.175Z,2936
2016-09-19T06:12:33.815Z,3004
2016-09-19T06:13:34.462Z,3060
2016-09-19T06:14:35.102Z,3116
2016-09-19T06:15:35.754Z,3128
2016-09-19T06:16:36.389Z,3160
2016-09-19T06:17:37.051Z,3176
2016-09-19T06:18:37.701Z,3184
2016-09-19T06:19:38.348Z,3256
2016-09-19T06:20:38.992Z,3324
2016-09-19T06:21:39.632Z,3380
2016-09-19T06:22:40.279Z,3412
2016-09-19T06:23:40.923Z,3428
2016-09-19T06:24:41.579Z,3496
2016-09-19T06:25:42.230Z,3660
2016-09-19T06:26:42.870Z,3804
2016-09-19T06:27:43.515Z,4120
2016-09-19T06:28:44.164Z,4740
2016-09-19T06:29:44.810Z,4144
2016-09-19T06:30:45.481Z,4180
2016-09-19T06:31:46.154Z,4284
2016-09-19T06:32:46.835Z,4148
2016-09-19T06:33:47.476Z,4688
2016-09-19T06:34:48.147Z,4872
2016-09-19T06:35:48.786Z,4388
2016-09-19T06:36:49.441Z,4312
2016-09-19T06:37:50.084Z,4536
2016-09-19T06:38:50.737Z,4860
2016-09-19T06:39:51.373Z,5380
2016-09-19T06:40:52.021Z,6616
2016-09-19T06:41:52.656Z,11256
2016-09-19T06:42:53.317Z,14240
2016-09-19T06:43:53.963Z,14704
2016-09-19T06:44:54.603Z,12356
2016-09-19T06:45:55.251Z,20480
2016-09-19T06:46:55.889Z,21504
2016-09-19T06:47:56.539Z,18944
2016-09-19T06:48:57.196Z,16640
2016-09-19T06:49:57.932Z,19936
2016-09-19T06:50:58.565Z,10956
2016-09-19T06:51:59.219Z,13024
2016-09-19T06:52:59.881Z,20512
2016-09-19T06:54:00.529Z,12844
2016-09-19T06:55:01.174Z,7496
2016-09-19T06:56:01.816Z,5752
2016-09-19T06:57:02.493Z,5300
2016-09-19T06:58:03.160Z,5468
2016-09-19T06:59:03.806Z,5388
2016-09-19T07:00:04.463Z,5236
2016-09-19T07:01:05.120Z,5076
2016-09-19T07:02:05.756Z,5156
2016-09-19T07:03:06.481Z,5160
2016-09-19T07:04:07.178Z,5168
2016-09-19T07:05:07.859Z,5200
2016-09-19T07:06:08.510Z,5200
2016-09-19T07:07:09.178Z,5204
2016-09-19T07:08:09.810Z,5244
2016-09-19T07:09:10.466Z,5288
2016-09-19T07:10:11.116Z,5284
2016-09-19T07:11:11.774Z,5276
2016-09-19T07:12:12.473Z,5248
2016-09-19T07:13:13.140Z,5176
2016-09-19T07:14:13.813Z,5172
2016-09-19T07:15:14.503Z,5292
2016-09-19T07:16:15.174Z,5508
2016-09-19T07:17:15.828Z,5788
2016-09-19T07:18:16.507Z,5956
2016-09-19T07:19:17.170Z,5992
2016-09-19T07:20:17.812Z,5952
2016-09-19T07:21:18.465Z,5884
2016-09-19T07:22:19.115Z,5864
2016-09-19T07:23:19.774Z,5908
2016-09-19T07:24:20.431Z,6008
2016-09-19T07:25:21.091Z,6124
2016-09-19T07:26:21.791Z,6180
2016-09-19T07:27:22.442Z,6220
2016-09-19T07:28:23.098Z,6232
2016-09-19T07:29:23.745Z,6212
2016-09-19T07:30:24.378Z,6148
2016-09-19T07:31:25.026Z,6104
2016-09-19T07:32:25.692Z,6076
2016-09-19T07:33:26.344Z,6076
2016-09-19T07:34:27.109Z,6096
2016-09-19T07:35:27.718Z,6164
2016-09-19T07:36:28.378Z,6292
2016-09-19T07:37:29.033Z,6460
2016-09-19T07:38:29.700Z,6576
2016-09-19T07:39:30.355Z,6676
2016-09-19T07:40:31.001Z,6736
2016-09-19T07:41:31.649Z,6736
2016-09-19T07:42:32.296Z,6800
2016-09-19T07:43:32.969Z,6896
2016-09-19T07:44:33.619Z,6920
2016-09-19T07:45:34.263Z,6908
2016-09-19T07:46:34.927Z,6924
2016-09-19T07:47:35.581Z,6956
2016-09-19T07:48:36.227Z,7032
2016-09-19T07:49:36.900Z,7144
2016-09-19T07:50:37.549Z,7256
2016-09-19T07:51:38.199Z,7424
2016-09-19T07:52:38.844Z,7476
2016-09-19T07:53:39.495Z,7448
2016-09-19T07:54:40.145Z,7420
2016-09-19T07:55:40.785Z,7328
2016-09-19T07:56:41.459Z,7240
2016-09-19T07:57:42.109Z,7124
2016-09-19T07:58:42.758Z,6968
2016-09-19T07:59:43.410Z,6780
2016-09-19T08:00:44.050Z,6612
2016-09-19T08:01:44.689Z,6508
2016-09-19T08:02:45.328Z,6496
2016-09-19T08:03:45.985Z,6592
2016-09-19T08:04:46.637Z,6600
2016-09-19T08:05:47.281Z,6596
2016-09-19T08:06:47.930Z,6584
2016-09-19T08:07:48.602Z,6572
2016-09-19T08:08:49.266Z,6604
2016-09-19T08:09:49.944Z,6700
2016-09-19T08:10:50.600Z,6900
2016-09-19T08:11:51.233Z,7152
2016-09-19T08:12:51.912Z,7344
2016-09-19T08:13:52.556Z,7508
2016-09-19T08:14:53.233Z,7652
2016-09-19T08:15:53.878Z,7876
2016-09-19T08:16:54.531Z,8164
2016-09-19T08:17:55.185Z,8496
2016-09-19T08:18:55.841Z,8796
2016-09-19T08:19:56.486Z,9028
2016-09-19T08:20:57.131Z,9148
2016-09-19T08:21:57.779Z,9140
2016-09-19T08:22:58.427Z,9072
2016-09-19T08:23:59.075Z,9000
2016-09-19T08:24:59.728Z,9004
2016-09-19T08:26:00.367Z,9084
2016-09-19T08:27:01.005Z,9284
2016-09-19T08:28:01.702Z,9548
2016-09-19T08:29:02.378Z,9808
2016-09-19T08:30:03.018Z,10004
2016-09-19T08:31:03.673Z,10032
2016-09-19T08:32:04.331Z,9912
2016-09-19T08:33:04.976Z,9816
2016-09-19T08:34:05.650Z,9856
2016-09-19T08:35:06.293Z,10176
2016-09-19T08:36:06.948Z,10600
2016-09-19T08:37:07.610Z,11012
2016-09-19T08:38:08.253Z,11268
2016-09-19T08:39:08.897Z,11508
2016-09-19T08:40:09.564Z,11584
2016-09-19T08:41:10.249Z,11396
2016-09-19T08:42:10.887Z,11108
2016-09-19T08:43:11.534Z,11072
2016-09-19T08:44:12.176Z,11284
2016-09-19T08:45:12.820Z,11576
2016-09-19T08:46:13.484Z,11940
2016-09-19T08:47:14.130Z,12080
2016-09-19T08:48:14.790Z,12400
2016-09-19T08:49:15.452Z,12984
2016-09-19T08:50:16.101Z,12364
2016-09-19T08:51:16.756Z,12464
2016-09-19T08:52:17.436Z,12828
2016-09-19T08:53:18.102Z,13380
2016-09-19T08:54:18.768Z,13260
2016-09-19T08:55:19.430Z,12776
2016-09-19T08:56:20.081Z,12356
2016-09-19T08:57:20.728Z,12216
2016-09-19T08:58:21.413Z,12272
2016-09-19T08:59:22.077Z,12384
2016-09-19T09:00:22.723Z,12572
2016-09-19T09:01:23.365Z,12880
2016-09-19T09:02:24.066Z,13300
2016-09-19T09:03:24.735Z,13464
2016-09-19T09:04:25.399Z,13332
2016-09-19T09:05:26.070Z,13364
2016-09-19T09:06:26.718Z,13496
2016-09-19T09:07:27.377Z,13688
2016-09-19T09:09:28.685Z,14056
2016-09-19T09:10:29.353Z,14380
2016-09-19T09:11:30.023Z,14196
2016-09-19T09:12:30.691Z,14348
2016-09-19T09:13:31.357Z,14572
2016-09-19T09:14:32.007Z,14880
2016-09-19T09:15:32.658Z,15108
2016-09-19T09:16:33.315Z,15180
2016-09-19T09:17:33.999Z,14952
2016-09-19T09:18:34.671Z,14700
2016-09-19T09:19:35.314Z,14456
2016-09-19T09:20:35.968Z,14368
2016-09-19T09:21:36.633Z,14692
2016-09-19T09:22:37.276Z,15220
2016-09-19T09:23:37.928Z,15416
2016-09-19T09:24:38.583Z,15316
2016-09-19T09:25:39.248Z,14996
2016-09-19T09:26:39.902Z,14600
2016-09-19T09:27:40.578Z,14436
2016-09-19T09:28:41.245Z,14720
2016-09-19T09:29:41.885Z,15208
2016-09-19T09:30:42.545Z,15716
2016-09-19T09:31:43.212Z,16100
2016-09-19T09:32:44.131Z,16052
2016-09-19T09:33:44.928Z,15728
2016-09-19T09:34:45.676Z,15224
2016-09-19T09:35:46.384Z,15096
2016-09-19T09:36:47.162Z,14924
2016-09-19T09:37:47.865Z,14740
2016-09-19T09:38:48.532Z,14508
2016-09-19T09:39:49.196Z,14264
2016-09-19T09:40:49.848Z,13972
2016-09-19T09:41:50.506Z,13380
2016-09-19T09:42:51.167Z,13440
2016-09-19T09:43:51.831Z,13804
2016-09-19T09:44:52.570Z,14184
2016-09-19T09:45:53.229Z,14420
2016-09-19T09:46:53.912Z,14504
2016-09-19T09:47:54.571Z,14408
2016-09-19T09:48:55.227Z,14488
2016-09-19T09:49:55.880Z,14532
2016-09-19T09:50:56.533Z,14728
2016-09-19T09:51:57.192Z,14912
2016-09-19T09:52:57.847Z,14972
2016-09-19T09:53:58.493Z,15016
2016-09-19T09:54:59.139Z,14916
2016-09-19T09:55:59.841Z,14696
2016-09-19T09:57:00.504Z,14488
2016-09-19T09:58:01.159Z,14396
2016-09-19T09:59:01.812Z,14196
2016-09-19T10:00:02.466Z,14160
2016-09-19T10:01:03.118Z,13968
2016-09-19T10:02:03.770Z,13800
2016-09-19T10:03:04.697Z,13812
2016-09-19T10:04:05.330Z,13844
2016-09-19T10:05:05.987Z,13524
2016-09-19T10:06:06.635Z,13460
2016-09-19T10:07:07.300Z,13444
2016-09-19T10:08:07.955Z,13280
2016-09-19T10:09:08.650Z,13288
2016-09-19T10:10:09.296Z,13116
2016-09-19T10:11:09.944Z,13164
2016-09-19T10:12:10.598Z,13332
2016-09-19T10:13:11.261Z,13612
2016-09-19T10:14:11.914Z,13828
2016-09-19T10:15:12.568Z,13800
2016-09-19T10:16:13.934Z,13740
2016-09-19T10:17:14.481Z,13584
2016-09-19T10:18:15.133Z,13292
2016-09-19T10:19:15.792Z,12804
2016-09-19T10:20:16.466Z,11856
2016-09-19T10:21:17.127Z,10484
2016-09-19T10:22:17.799Z,8804
2016-09-19T10:23:18.467Z,7324
2016-09-19T10:24:19.126Z,6244
2016-09-19T10:25:20.717Z,5496
2016-09-19T10:26:21.381Z,5304
2016-09-19T10:27:22.053Z,5168
2016-09-19T10:28:22.712Z,5376
2016-09-19T10:29:23.366Z,5236
2016-09-19T10:30:24.005Z,5164
2016-09-19T10:31:24.660Z,5048
2016-09-19T10:32:25.310Z,4976
2016-09-19T10:33:25.964Z,4876
2016-09-19T10:34:26.643Z,4824
2016-09-19T10:35:27.317Z,4732
2016-09-19T10:36:28.001Z,4684
2016-09-19T10:37:28.673Z,4636
2016-09-19T10:38:29.334Z,4628
2016-09-19T10:39:30.025Z,4620
2016-09-19T10:40:30.697Z,4544
2016-09-19T10:41:31.358Z,4600
2016-09-19T10:42:32.007Z,4584
2016-09-19T10:43:32.668Z,4692
2016-09-19T10:44:33.324Z,4600
2016-09-19T10:45:33.985Z,4692
2016-09-19T10:46:34.637Z,4380
2016-09-19T10:47:35.303Z,4416
2016-09-19T10:48:35.957Z,4516
2016-09-19T10:49:36.600Z,4496
2016-09-19T10:50:37.265Z,4436
2016-09-19T10:51:37.911Z,4352
2016-09-19T10:52:38.568Z,4368
2016-09-19T10:53:39.209Z,4316
2016-09-19T10:54:39.856Z,4268
2016-09-19T10:55:40.563Z,4356
2016-09-19T10:56:41.232Z,4368
2016-09-19T10:57:41.915Z,4208
2016-09-19T10:58:42.588Z,4488
2016-09-19T10:59:43.272Z,4444
2016-09-19T11:00:43.973Z,4476
2016-09-19T11:01:44.613Z,4620
2016-09-19T11:02:45.274Z,4576
2016-09-19T11:03:45.952Z,4548
2016-09-19T11:04:46.604Z,4572
2016-09-19T11:05:47.328Z,4636
2016-09-19T11:06:47.964Z,4700
2016-09-19T11:07:48.623Z,4876
2016-09-19T11:08:49.287Z,5180
2016-09-19T11:09:49.946Z,5484
2016-09-19T11:10:50.645Z,6100
2016-09-19T11:11:51.326Z,7520
2016-09-19T11:12:51.974Z,8992
2016-09-19T11:13:52.701Z,9460
2016-09-19T11:14:53.357Z,10516
2016-09-19T11:15:54.008Z,11176
2016-09-19T11:16:54.679Z,11016
2016-09-19T11:17:55.600Z,10820
2016-09-19T11:18:56.261Z,11824
2016-09-19T11:19:56.989Z,12392
2016-09-19T11:20:57.660Z,11780
2016-09-19T11:21:58.330Z,11240
2016-09-19T11:22:58.989Z,10504
2016-09-19T11:23:59.642Z,9572
2016-09-19T11:25:00.300Z,8604
2016-09-19T11:26:01.215Z,7328
2016-09-19T11:27:01.926Z,6420
2016-09-19T11:28:02.594Z,5844
2016-09-19T11:29:03.259Z,5688
2016-09-19T11:30:03.937Z,5400
2016-09-19T11:31:04.638Z,5100
2016-09-19T11:32:05.299Z,4956
2016-09-19T11:33:06.034Z,5076
2016-09-19T11:34:06.734Z,5292
2016-09-19T11:35:07.406Z,5528
2016-09-19T11:36:08.854Z,5868
2016-09-19T11:37:09.601Z,6120
2016-09-19T11:38:10.268Z,6284
2016-09-19T11:39:10.926Z,6384
2016-09-19T11:40:11.714Z,6600
2016-09-19T11:41:12.432Z,6832
2016-09-19T11:42:13.114Z,6772
2016-09-19T11:43:13.772Z,6480
2016-09-19T11:44:14.460Z,6164
2016-09-19T11:45:15.114Z,5772
2016-09-19T11:46:15.787Z,5380
2016-09-19T11:47:16.447Z,5096
2016-09-19T11:48:17.110Z,4984
2016-09-19T11:49:17.761Z,5156
2016-09-19T11:50:18.416Z,5648
2016-09-19T11:51:19.066Z,6180
2016-09-19T11:52:19.708Z,6588
2016-09-19T11:53:20.361Z,6780
2016-09-19T11:54:21.023Z,6748
2016-09-19T11:55:21.673Z,6452
2016-09-19T11:56:22.362Z,6096
2016-09-19T11:57:22.991Z,5772
2016-09-19T11:58:23.652Z,5696
2016-09-19T11:59:24.286Z,5312
2016-09-19T12:00:24.931Z,5036
2016-09-19T12:01:25.578Z,4792
2016-09-19T12:02:26.245Z,4612
2016-09-19T12:03:26.917Z,4460
2016-09-19T12:04:27.581Z,4592
2016-09-19T12:05:28.238Z,4856
2016-09-19T12:06:28.903Z,5000
2016-09-19T12:07:29.569Z,5236
2016-09-19T12:08:30.261Z,5368
2016-09-19T12:09:30.919Z,5896
2016-09-19T12:10:31.566Z,6552
2016-09-19T12:11:32.224Z,7080
2016-09-19T12:12:32.906Z,7336
2016-09-19T12:13:33.567Z,7464
2016-09-19T12:14:34.230Z,7336
2016-09-19T12:15:34.972Z,6704
2016-09-19T12:16:35.660Z,6184
2016-09-19T12:17:36.309Z,5824
2016-09-19T12:18:36.979Z,5760
2016-09-19T12:19:37.661Z,5416
2016-09-19T12:20:38.336Z,5100
2016-09-19T12:22:39.662Z,4664
2016-09-19T12:23:40.330Z,4480
2016-09-19T12:24:41.004Z,4276
2016-09-19T12:25:41.646Z,4020
2016-09-19T12:26:42.298Z,3932
2016-09-19T12:27:42.953Z,3804
2016-09-19T12:28:43.595Z,3732
2016-09-19T12:29:44.240Z,3672
2016-09-19T12:30:44.909Z,3568
2016-09-19T12:31:45.560Z,3380
2016-09-19T12:32:46.230Z,3180
2016-09-19T12:33:46.886Z,3012
2016-09-19T12:34:47.539Z,2900
2016-09-19T12:35:48.197Z,2864
2016-09-19T12:36:48.878Z,2812
2016-09-19T12:37:49.569Z,2736
2016-09-19T12:38:50.230Z,2680
2016-09-19T12:39:50.898Z,2652
2016-09-19T12:40:51.568Z,2860
2016-09-19T12:41:52.255Z,2856
2016-09-19T12:42:52.913Z,2872
2016-09-19T12:43:53.586Z,2880
2016-09-19T12:44:54.251Z,2872
2016-09-19T12:45:54.950Z,2892
2016-09-19T12:46:55.608Z,2944
2016-09-19T12:47:56.292Z,2972
2016-09-19T12:48:56.926Z,3032
2016-09-19T12:49:57.625Z,3128
2016-09-19T12:50:58.297Z,3288
2016-09-19T12:51:58.958Z,3440
2016-09-19T12:52:59.664Z,3608
2016-09-19T12:54:00.310Z,4028
2016-09-19T12:55:00.984Z,4492
2016-09-19T12:56:01.659Z,5384
2016-09-19T12:57:02.330Z,5996
2016-09-19T12:58:02.974Z,6100
2016-09-19T12:59:03.630Z,6048
2016-09-19T13:00:04.506Z,6072
2016-09-19T13:01:04.957Z,5828
2016-09-19T13:02:05.657Z,5632
2016-09-19T13:03:06.301Z,5472
2016-09-19T13:04:06.999Z,5264
2016-09-19T13:05:07.648Z,5088
2016-09-19T13:06:08.342Z,4872
2016-09-19T13:07:09.107Z,4616
2016-09-19T13:08:09.767Z,4276
2016-09-19T13:09:10.433Z,3944
2016-09-19T13:10:11.104Z,3392
2016-09-19T13:11:11.778Z,2988
2016-09-19T13:12:12.456Z,2952
2016-09-19T13:13:13.120Z,2976
2016-09-19T13:14:13.790Z,2904
2016-09-19T13:15:14.445Z,2904
2016-09-19T13:16:15.104Z,3000
2016-09-19T13:17:15.760Z,3016
2016-09-19T13:18:16.416Z,3100
2016-09-19T13:19:17.071Z,3208
2016-09-19T13:20:17.726Z,3300
2016-09-19T13:21:18.395Z,3324
2016-09-19T13:22:19.049Z,3388
2016-09-19T13:23:19.700Z,3480
2016-09-19T13:24:20.346Z,3524
2016-09-19T13:25:21.019Z,3608
2016-09-19T13:26:21.675Z,3808
2016-09-19T13:27:22.328Z,4004
2016-09-19T13:28:22.971Z,4156
2016-09-19T13:29:23.665Z,4080
2016-09-19T13:30:24.312Z,3908
2016-09-19T13:31:24.969Z,3864
2016-09-19T13:32:25.633Z,4096
2016-09-19T13:33:26.293Z,4040
2016-09-19T13:34:26.960Z,3856
2016-09-19T13:35:27.625Z,3792
2016-09-19T13:36:28.267Z,3860
2016-09-19T13:37:28.916Z,3956
2016-09-19T13:38:29.564Z,4036
2016-09-19T13:39:30.229Z,4004
2016-09-19T13:40:30.876Z,3952
2016-09-19T13:41:31.526Z,4072
2016-09-19T13:42:32.298Z,4016
2016-09-19T13:43:32.848Z,4096
2016-09-19T13:44:33.544Z,4100
2016-09-19T13:45:34.195Z,4140
2016-09-19T13:46:34.991Z,4144
2016-09-19T13:47:36.450Z,4116
2016-09-19T13:48:37.103Z,3912
2016-09-19T13:49:37.776Z,3740
2016-09-19T13:50:38.429Z,3644
2016-09-19T13:51:39.108Z,3524
2016-09-19T13:52:39.788Z,3384
2016-09-19T13:53:40.431Z,3244
2016-09-19T13:54:41.129Z,3064
2016-09-19T13:55:42.249Z,2896